sensor_id;sensor_type;location;lat;lon;timestamp;pressure;altitude;pressure_sealevel;temperature;humidity
29239;BME280;16267;48.194;11.546;2022-12-29T00:01:35;95785.25;;;5.47;62.01
29239;BME280;16267;48.194;11.546;2022-12-29T00:04:03;95791.69;;;5.46;61.72
29239;BME280;16267;48.194;11.546;2022-12-29T00:06:30;95778.78;;;5.44;61.52
29239;BME280;16267;48.194;11.546;2022-12-29T00:08:56;95779.91;;;5.43;61.16
29239;BME280;16267;48.194;11.546;2022-12-29T00:11:25;95777.63;;;5.45;61.25
29239;BME280;16267;48.194;11.546;2022-12-29T00:13:52;95767.75;;;5.46;60.72
29239;BME280;16267;48.194;11.546;2022-12-29T00:16:38;95769.28;;;5.47;60.59
29239;BME280;16267;48.194;11.546;2022-12-29T00:19:04;95764.72;;;5.47;60.98
29239;BME280;16267;48.194;11.546;2022-12-29T00:21:31;95758.63;;;5.47;60.73
29239;BME280;16267;48.194;11.546;2022-12-29T00:24:21;95757.88;;;5.50;60.89
29239;BME280;16267;48.194;11.546;2022-12-29T00:29:46;95763.97;;;5.50;60.35
29239;BME280;16267;48.194;11.546;2022-12-29T00:32:34;95769.28;;;5.50;60.42
29239;BME280;16267;48.194;11.546;2022-12-29T00:35:29;95763.56;;;5.48;59.21
29239;BME280;16267;48.194;11.546;2022-12-29T00:37:59;95760.16;;;5.51;59.96
29239;BME280;16267;48.194;11.546;2022-12-29T00:40:45;95757.50;;;5.51;58.88
29239;BME280;16267;48.194;11.546;2022-12-29T00:43:29;95761.31;;;5.50;58.72
29239;BME280;16267;48.194;11.546;2022-12-29T00:46:13;95761.31;;;5.54;58.95
29239;BME280;16267;48.194;11.546;2022-12-29T00:48:39;95762.88;;;5.55;59.13
29239;BME280;16267;48.194;11.546;2022-12-29T00:51:24;95758.28;;;5.52;58.83
29239;BME280;16267;48.194;11.546;2022-12-29T00:53:50;95757.91;;;5.53;59.06
29239;BME280;16267;48.194;11.546;2022-12-29T00:56:15;95749.16;;;5.56;59.33
29239;BME280;16267;48.194;11.546;2022-12-29T00:58:41;95756.03;;;5.57;59.43
29239;BME280;16267;48.194;11.546;2022-12-29T01:01:08;95767.44;;;5.58;59.29
29239;BME280;16267;48.194;11.546;2022-12-29T01:03:36;95765.53;;;5.58;59.72
29239;BME280;16267;48.194;11.546;2022-12-29T01:06:05;95766.69;;;5.57;59.44
29239;BME280;16267;48.194;11.546;2022-12-29T01:08:35;95769.34;;;5.57;59.47
29239;BME280;16267;48.194;11.546;2022-12-29T01:11:06;95769.69;;;5.56;58.57
29239;BME280;16267;48.194;11.546;2022-12-29T01:13:33;95771.22;;;5.57;58.90
29239;BME280;16267;48.194;11.546;2022-12-29T01:15:59;95771.22;;;5.57;58.52
29239;BME280;16267;48.194;11.546;2022-12-29T01:18:25;95772.75;;;5.58;58.20
29239;BME280;16267;48.194;11.546;2022-12-29T01:20:57;95768.56;;;5.57;58.14
29239;BME280;16267;48.194;11.546;2022-12-29T01:23:23;95775.78;;;5.56;58.31
29239;BME280;16267;48.194;11.546;2022-12-29T01:25:49;95772.38;;;5.56;58.54
29239;BME280;16267;48.194;11.546;2022-12-29T01:28:15;95770.47;;;5.56;58.36
29239;BME280;16267;48.194;11.546;2022-12-29T01:30:40;95767.78;;;5.53;58.91
29239;BME280;16267;48.194;11.546;2022-12-29T01:33:06;95776.53;;;5.53;59.45
29239;BME280;16267;48.194;11.546;2022-12-29T01:35:32;95776.53;;;5.53;58.53
29239;BME280;16267;48.194;11.546;2022-12-29T01:37:58;95775.78;;;5.53;58.51
29239;BME280;16267;48.194;11.546;2022-12-29T01:40:24;95771.22;;;5.53;59.02
29239;BME280;16267;48.194;11.546;2022-12-29T01:42:50;95770.81;;;5.51;58.61
29239;BME280;16267;48.194;11.546;2022-12-29T01:45:17;95771.22;;;5.53;58.13
29239;BME280;16267;48.194;11.546;2022-12-29T01:48:03;95776.13;;;5.51;58.12
29239;BME280;16267;48.194;11.546;2022-12-29T01:50:41;95765.13;;;5.53;57.96
29239;BME280;16267;48.194;11.546;2022-12-29T01:53:22;95768.16;;;5.51;57.46
29239;BME280;16267;48.194;11.546;2022-12-29T01:55:58;95770.81;;;5.51;58.19
29239;BME280;16267;48.194;11.546;2022-12-29T01:58:30;95773.09;;;5.49;57.72
29239;BME280;16267;48.194;11.546;2022-12-29T02:00:56;95762.81;;;5.48;58.40
29239;BME280;16267;48.194;11.546;2022-12-29T02:03:24;95763.97;;;5.47;58.15
29239;BME280;16267;48.194;11.546;2022-12-29T02:06:02;95759.38;;;5.47;58.46
29239;BME280;16267;48.194;11.546;2022-12-29T02:08:30;95761.69;;;5.49;58.28
29239;BME280;16267;48.194;11.546;2022-12-29T02:10:56;95758.63;;;5.47;57.45
29239;BME280;16267;48.194;11.546;2022-12-29T02:13:25;95748.75;;;5.47;57.68
29239;BME280;16267;48.194;11.546;2022-12-29T02:19:24;95749.50;;;5.51;58.26
29239;BME280;16267;48.194;11.546;2022-12-29T02:22:05;95749.91;;;5.53;58.20
29239;BME280;16267;48.194;11.546;2022-12-29T02:33:44;95756.00;;;5.54;57.95
29239;BME280;16267;48.194;11.546;2022-12-29T02:36:44;95757.16;;;5.56;57.94
29239;BME280;16267;48.194;11.546;2022-12-29T02:39:21;95755.63;;;5.55;57.20
29239;BME280;16267;48.194;11.546;2022-12-29T02:45:14;95748.00;;;5.54;56.85
29239;BME280;16267;48.194;11.546;2022-12-29T02:50:44;95737.75;;;5.56;56.98
29239;BME280;16267;48.194;11.546;2022-12-29T02:53:17;95729.03;;;5.59;56.63
29239;BME280;16267;48.194;11.546;2022-12-29T02:56:04;95732.06;;;5.57;54.41
29239;BME280;16267;48.194;11.546;2022-12-29T02:58:29;95731.69;;;5.59;55.39
29239;BME280;16267;48.194;11.546;2022-12-29T03:07:09;95729.44;;;5.65;55.18
29239;BME280;16267;48.194;11.546;2022-12-29T03:09:52;95725.66;;;5.69;55.50
29239;BME280;16267;48.194;11.546;2022-12-29T03:12:34;95727.94;;;5.71;54.95
29239;BME280;16267;48.194;11.546;2022-12-29T03:15:34;95713.13;;;5.77;55.33
29239;BME280;16267;48.194;11.546;2022-12-29T03:19:13;95717.34;;;5.85;54.78
29239;BME280;16267;48.194;11.546;2022-12-29T03:24:36;95705.94;;;5.92;54.17
29239;BME280;16267;48.194;11.546;2022-12-29T03:27:06;95701.81;;;5.94;54.45
29239;BME280;16267;48.194;11.546;2022-12-29T03:29:40;95702.19;;;6.00;54.58
29239;BME280;16267;48.194;11.546;2022-12-29T03:32:07;95700.28;;;6.00;54.90
29239;BME280;16267;48.194;11.546;2022-12-29T03:34:35;95694.59;;;6.06;54.37
29239;BME280;16267;48.194;11.546;2022-12-29T03:37:14;95709.84;;;6.09;54.18
29239;BME280;16267;48.194;11.546;2022-12-29T03:39:41;95698.41;;;6.12;53.98
29239;BME280;16267;48.194;11.546;2022-12-29T03:42:13;95702.22;;;6.14;53.95
29239;BME280;16267;48.194;11.546;2022-12-29T03:44:43;95698.06;;;6.17;53.95
29239;BME280;16267;48.194;11.546;2022-12-29T03:47:14;95691.19;;;6.19;53.71
29239;BME280;16267;48.194;11.546;2022-12-29T03:49:41;95699.19;;;6.23;54.04
29239;BME280;16267;48.194;11.546;2022-12-29T03:52:07;95701.50;;;6.28;53.52
29239;BME280;16267;48.194;11.546;2022-12-29T03:54:33;95698.81;;;6.32;53.17
29239;BME280;16267;48.194;11.546;2022-12-29T03:56:59;95693.13;;;6.33;53.28
29239;BME280;16267;48.194;11.546;2022-12-29T03:59:24;95692.75;;;6.31;52.36
29239;BME280;16267;48.194;11.546;2022-12-29T04:01:50;95703.03;;;6.33;52.53
29239;BME280;16267;48.194;11.546;2022-12-29T04:04:16;95696.94;;;6.36;52.83
29239;BME280;16267;48.194;11.546;2022-12-29T04:06:42;95696.94;;;6.36;52.77
29239;BME280;16267;48.194;11.546;2022-12-29T04:09:09;95701.16;;;6.40;52.28
29239;BME280;16267;48.194;11.546;2022-12-29T04:11:35;95699.63;;;6.43;52.81
29239;BME280;16267;48.194;11.546;2022-12-29T04:14:01;95701.91;;;6.41;51.99
29239;BME280;16267;48.194;11.546;2022-12-29T04:16:27;95702.28;;;6.43;51.91
29239;BME280;16267;48.194;11.546;2022-12-29T04:18:52;95699.63;;;6.50;52.43
29239;BME280;16267;48.194;11.546;2022-12-29T04:21:18;95698.50;;;6.55;52.60
29239;BME280;16267;48.194;11.546;2022-12-29T04:23:44;95705.34;;;6.59;52.31
29239;BME280;16267;48.194;11.546;2022-12-29T04:26:10;95693.94;;;6.62;52.76
29239;BME280;16267;48.194;11.546;2022-12-29T04:28:36;95694.69;;;6.66;52.45
29239;BME280;16267;48.194;11.546;2022-12-29T04:31:05;95695.81;;;6.69;52.18
29239;BME280;16267;48.194;11.546;2022-12-29T04:33:31;95684.38;;;6.72;52.50
29239;BME280;16267;48.194;11.546;2022-12-29T04:35:57;95692.03;;;6.74;52.81
29239;BME280;16267;48.194;11.546;2022-12-29T04:38:23;95685.53;;;6.75;53.05
29239;BME280;16267;48.194;11.546;2022-12-29T04:40:50;95682.88;;;6.75;52.72
29239;BME280;16267;48.194;11.546;2022-12-29T04:43:17;95687.84;;;6.76;52.90
29239;BME280;16267;48.194;11.546;2022-12-29T04:45:46;95690.88;;;6.75;52.01
29239;BME280;16267;48.194;11.546;2022-12-29T04:48:13;95686.69;;;6.74;52.19
29239;BME280;16267;48.194;11.546;2022-12-29T04:50:40;95680.97;;;6.75;52.23
29239;BME280;16267;48.194;11.546;2022-12-29T04:53:07;95687.84;;;6.76;51.49
29239;BME280;16267;48.194;11.546;2022-12-29T04:55:32;95685.91;;;6.77;51.35
29239;BME280;16267;48.194;11.546;2022-12-29T04:57:58;95690.13;;;6.74;51.15
29239;BME280;16267;48.194;11.546;2022-12-29T05:00:24;95680.56;;;6.73;51.27
29239;BME280;16267;48.194;11.546;2022-12-29T05:02:50;95683.63;;;6.75;51.21
29239;BME280;16267;48.194;11.546;2022-12-29T05:05:16;95690.13;;;6.74;51.39
29239;BME280;16267;48.194;11.546;2022-12-29T05:07:42;95685.91;;;6.77;51.17
29239;BME280;16267;48.194;11.546;2022-12-29T05:10:08;95684.00;;;6.81;52.15
29239;BME280;16267;48.194;11.546;2022-12-29T05:12:36;95683.63;;;6.79;50.75
29239;BME280;16267;48.194;11.546;2022-12-29T05:15:04;95693.91;;;6.80;51.04
29239;BME280;16267;48.194;11.546;2022-12-29T05:17:30;95700.41;;;6.83;50.99
29239;BME280;16267;48.194;11.546;2022-12-29T05:19:56;95706.88;;;6.85;51.18
29239;BME280;16267;48.194;11.546;2022-12-29T05:22:22;95698.84;;;6.89;51.85
29239;BME280;16267;48.194;11.546;2022-12-29T05:24:48;95704.94;;;6.89;51.16
29239;BME280;16267;48.194;11.546;2022-12-29T05:27:14;95701.50;;;6.92;50.92
29239;BME280;16267;48.194;11.546;2022-12-29T05:29:40;95695.81;;;6.90;50.94
29239;BME280;16267;48.194;11.546;2022-12-29T05:32:05;95696.56;;;6.91;50.72
29239;BME280;16267;48.194;11.546;2022-12-29T05:34:31;95695.44;;;6.92;51.04
29239;BME280;16267;48.194;11.546;2022-12-29T05:36:57;95690.47;;;6.94;50.64
29239;BME280;16267;48.194;11.546;2022-12-29T05:39:23;95679.03;;;6.93;50.53
29239;BME280;16267;48.194;11.546;2022-12-29T05:41:49;95677.53;;;6.96;50.04
29239;BME280;16267;48.194;11.546;2022-12-29T05:44:15;95688.56;;;6.98;50.13
29239;BME280;16267;48.194;11.546;2022-12-29T05:46:40;95691.59;;;7.00;50.40
29239;BME280;16267;48.194;11.546;2022-12-29T05:49:06;95693.16;;;7.01;50.37
29239;BME280;16267;48.194;11.546;2022-12-29T05:51:32;95691.22;;;7.05;50.45
29239;BME280;16267;48.194;11.546;2022-12-29T05:53:58;95683.59;;;7.07;50.58
29239;BME280;16267;48.194;11.546;2022-12-29T05:56:24;95680.94;;;7.07;49.92
29239;BME280;16267;48.194;11.546;2022-12-29T05:58:49;95684.34;;;7.08;50.22
29239;BME280;16267;48.194;11.546;2022-12-29T06:01:17;95692.75;;;7.10;50.24
29239;BME280;16267;48.194;11.546;2022-12-29T06:03:43;95692.72;;;7.13;50.20
29239;BME280;16267;48.194;11.546;2022-12-29T06:06:09;95687.03;;;7.15;49.80
29239;BME280;16267;48.194;11.546;2022-12-29T06:08:34;95686.25;;;7.14;49.78
29239;BME280;16267;48.194;11.546;2022-12-29T06:11:00;95685.88;;;7.16;50.19
29239;BME280;16267;48.194;11.546;2022-12-29T06:13:26;95686.63;;;7.17;49.19
29239;BME280;16267;48.194;11.546;2022-12-29T06:15:53;95689.69;;;7.19;49.93
29239;BME280;16267;48.194;11.546;2022-12-29T06:18:18;95688.94;;;7.18;49.43
29239;BME280;16267;48.194;11.546;2022-12-29T06:20:44;95691.19;;;7.20;50.23
29239;BME280;16267;48.194;11.546;2022-12-29T06:23:10;95693.09;;;7.23;50.40
29239;BME280;16267;48.194;11.546;2022-12-29T06:25:37;95690.06;;;7.24;49.98
29239;BME280;16267;48.194;11.546;2022-12-29T06:28:03;95694.22;;;7.25;49.70
29239;BME280;16267;48.194;11.546;2022-12-29T06:30:29;95705.66;;;7.26;50.36
29239;BME280;16267;48.194;11.546;2022-12-29T06:32:54;95688.50;;;7.23;49.21
29239;BME280;16267;48.194;11.546;2022-12-29T06:35:21;95700.31;;;7.26;49.64
29239;BME280;16267;48.194;11.546;2022-12-29T06:37:49;95684.31;;;7.29;49.73
29239;BME280;16267;48.194;11.546;2022-12-29T06:40:15;95684.31;;;7.33;49.48
29239;BME280;16267;48.194;11.546;2022-12-29T06:42:41;95685.81;;;7.34;49.15
29239;BME280;16267;48.194;11.546;2022-12-29T06:45:07;95685.06;;;7.33;49.49
29239;BME280;16267;48.194;11.546;2022-12-29T06:47:34;95684.69;;;7.35;49.47
29239;BME280;16267;48.194;11.546;2022-12-29T06:50:01;95686.19;;;7.36;50.06
29239;BME280;16267;48.194;11.546;2022-12-29T06:52:27;95685.44;;;7.39;50.36
29239;BME280;16267;48.194;11.546;2022-12-29T06:54:54;95686.97;;;7.40;49.78
29239;BME280;16267;48.194;11.546;2022-12-29T06:57:20;95690.75;;;7.39;49.36
29239;BME280;16267;48.194;11.546;2022-12-29T06:59:46;95683.94;;;7.34;49.21
29239;BME280;16267;48.194;11.546;2022-12-29T07:02:13;95701.06;;;7.37;49.84
29239;BME280;16267;48.194;11.546;2022-12-29T07:04:40;95698.03;;;7.38;49.76
29239;BME280;16267;48.194;11.546;2022-12-29T07:07:06;95703.34;;;7.38;49.34
29239;BME280;16267;48.194;11.546;2022-12-29T07:09:31;95701.47;;;7.35;49.51
29239;BME280;16267;48.194;11.546;2022-12-29T07:11:57;95710.63;;;7.34;49.42
29239;BME280;16267;48.194;11.546;2022-12-29T07:14:23;95710.97;;;7.36;50.81
29239;BME280;16267;48.194;11.546;2022-12-29T07:16:49;95720.53;;;7.37;50.63
29239;BME280;16267;48.194;11.546;2022-12-29T07:19:14;95715.59;;;7.29;49.01
29239;BME280;16267;48.194;11.546;2022-12-29T07:21:40;95727.38;;;7.31;49.21
29239;BME280;16267;48.194;11.546;2022-12-29T07:24:07;95725.09;;;7.37;49.91
29239;BME280;16267;48.194;11.546;2022-12-29T07:26:34;95726.22;;;7.40;49.22
29239;BME280;16267;48.194;11.546;2022-12-29T07:29:03;95726.63;;;7.38;48.04
29239;BME280;16267;48.194;11.546;2022-12-29T07:31:29;95729.28;;;7.42;47.10
29239;BME280;16267;48.194;11.546;2022-12-29T07:33:54;95730.41;;;7.48;47.96
29239;BME280;16267;48.194;11.546;2022-12-29T07:36:20;95733.47;;;7.50;47.02
29239;BME280;16267;48.194;11.546;2022-12-29T07:38:46;95725.06;;;7.55;47.39
29239;BME280;16267;48.194;11.546;2022-12-29T07:41:12;95730.78;;;7.57;47.99
29239;BME280;16267;48.194;11.546;2022-12-29T07:43:38;95727.72;;;7.58;46.79
29239;BME280;16267;48.194;11.546;2022-12-29T07:46:04;95729.25;;;7.63;48.71
29239;BME280;16267;48.194;11.546;2022-12-29T07:48:29;95732.28;;;7.69;47.56
29239;BME280;16267;48.194;11.546;2022-12-29T07:50:55;95729.22;;;7.67;46.76
29239;BME280;16267;48.194;11.546;2022-12-29T07:53:21;95729.19;;;7.70;47.82
29239;BME280;16267;48.194;11.546;2022-12-29T07:55:47;95732.63;;;7.74;46.76
29239;BME280;16267;48.194;11.546;2022-12-29T07:58:13;95746.38;;;7.76;46.67
29239;BME280;16267;48.194;11.546;2022-12-29T08:00:39;95744.41;;;7.84;47.56
29239;BME280;16267;48.194;11.546;2022-12-29T08:03:05;95743.69;;;7.80;46.22
29239;BME280;16267;48.194;11.546;2022-12-29T08:05:32;95737.56;;;7.83;46.55
29239;BME280;16267;48.194;11.546;2022-12-29T08:07:59;95723.81;;;7.88;46.79
29239;BME280;16267;48.194;11.546;2022-12-29T08:10:25;95735.22;;;7.92;46.92
29239;BME280;16267;48.194;11.546;2022-12-29T08:12:50;95736.75;;;7.97;46.88
29239;BME280;16267;48.194;11.546;2022-12-29T08:15:16;95727.91;;;8.03;47.13
29239;BME280;16267;48.194;11.546;2022-12-29T08:17:42;95730.19;;;8.09;46.87
29239;BME280;16267;48.194;11.546;2022-12-29T08:20:08;95739.75;;;8.10;46.58
29239;BME280;16267;48.194;11.546;2022-12-29T08:22:34;95737.44;;;8.12;47.14
29239;BME280;16267;48.194;11.546;2022-12-29T08:25:00;95734.75;;;8.12;46.26
29239;BME280;16267;48.194;11.546;2022-12-29T08:27:26;95725.19;;;8.18;47.03
29239;BME280;16267;48.194;11.546;2022-12-29T08:29:52;95732.44;;;8.21;46.40
29239;BME280;16267;48.194;11.546;2022-12-29T08:32:18;95727.44;;;8.23;47.25
29239;BME280;16267;48.194;11.546;2022-12-29T08:34:44;95723.63;;;8.24;46.15
29239;BME280;16267;48.194;11.546;2022-12-29T08:37:10;95726.66;;;8.30;47.03
29239;BME280;16267;48.194;11.546;2022-12-29T08:39:36;95730.09;;;8.30;45.65
29239;BME280;16267;48.194;11.546;2022-12-29T08:42:01;95723.56;;;8.35;45.95
29239;BME280;16267;48.194;11.546;2022-12-29T08:44:27;95730.81;;;8.38;46.35
29239;BME280;16267;48.194;11.546;2022-12-29T08:46:53;95736.16;;;8.41;46.27
29239;BME280;16267;48.194;11.546;2022-12-29T08:49:18;95740.72;;;8.44;46.09
29239;BME280;16267;48.194;11.546;2022-12-29T08:51:44;95748.72;;;8.52;46.40
29239;BME280;16267;48.194;11.546;2022-12-29T08:54:10;95748.72;;;8.52;45.58
29239;BME280;16267;48.194;11.546;2022-12-29T08:56:36;95746.78;;;8.56;45.62
29239;BME280;16267;48.194;11.546;2022-12-29T08:59:01;95748.66;;;8.62;46.53
29239;BME280;16267;48.194;11.546;2022-12-29T09:01:27;95752.03;;;8.70;46.21
29239;BME280;16267;48.194;11.546;2022-12-29T09:03:53;95764.22;;;8.75;46.35
29239;BME280;16267;48.194;11.546;2022-12-29T09:06:20;95763.81;;;8.80;46.58
29239;BME280;16267;48.194;11.546;2022-12-29T09:08:46;95764.91;;;8.86;46.56
29239;BME280;16267;48.194;11.546;2022-12-29T09:11:22;95767.19;;;8.91;47.00
29239;BME280;16267;48.194;11.546;2022-12-29T09:13:48;95761.78;;;8.98;46.94
29239;BME280;16267;48.194;11.546;2022-12-29T09:16:16;95758.69;;;9.00;45.71
29239;BME280;16267;48.194;11.546;2022-12-29T09:18:42;95764.41;;;9.02;45.80
29239;BME280;16267;48.194;11.546;2022-12-29T09:21:10;95760.91;;;9.08;45.94
29239;BME280;16267;48.194;11.546;2022-12-29T09:23:36;95761.28;;;9.10;44.57
29239;BME280;16267;48.194;11.546;2022-12-29T09:26:03;95762.75;;;9.19;45.44
29239;BME280;16267;48.194;11.546;2022-12-29T09:28:30;95761.13;;;9.28;45.16
29239;BME280;16267;48.194;11.546;2022-12-29T09:30:57;95758.00;;;9.37;44.52
29239;BME280;16267;48.194;11.546;2022-12-29T09:33:23;95754.88;;;9.42;44.47
29239;BME280;16267;48.194;11.546;2022-12-29T09:35:58;95749.81;;;9.51;44.84
29239;BME280;16267;48.194;11.546;2022-12-29T09:38:26;95742.47;;;9.59;44.77
29239;BME280;16267;48.194;11.546;2022-12-29T09:41:01;95751.59;;;9.65;43.76
29239;BME280;16267;48.194;11.546;2022-12-29T09:46:28;95734.28;;;9.73;43.54
29239;BME280;16267;48.194;11.546;2022-12-29T09:51:55;95760.19;;;9.83;43.72
29239;BME280;16267;48.194;11.546;2022-12-29T09:57:03;95751.28;;;9.94;43.97
29239;BME280;16267;48.194;11.546;2022-12-29T09:59:41;95745.09;;;9.97;44.41
29239;BME280;16267;48.194;11.546;2022-12-29T10:02:32;95734.00;;;9.95;44.08
29239;BME280;16267;48.194;11.546;2022-12-29T10:05:02;95734.00;;;9.98;44.26
29239;BME280;16267;48.194;11.546;2022-12-29T10:07:48;95732.75;;;10.07;44.81
29239;BME280;16267;48.194;11.546;2022-12-29T10:10:50;95731.50;;;10.15;45.33
29239;BME280;16267;48.194;11.546;2022-12-29T10:13:55;95739.94;;;10.13;44.51
29239;BME280;16267;48.194;11.546;2022-12-29T10:16:50;95724.19;;;10.15;43.19
29239;BME280;16267;48.194;11.546;2022-12-29T10:24:51;95732.44;;;10.32;43.56
29239;BME280;16267;48.194;11.546;2022-12-29T10:27:20;95733.50;;;10.38;43.79
29239;BME280;16267;48.194;11.546;2022-12-29T10:29:55;95738.00;;;10.44;43.64
29239;BME280;16267;48.194;11.546;2022-12-29T10:32:49;95739.84;;;10.51;45.02
29239;BME280;16267;48.194;11.546;2022-12-29T10:35:22;95741.31;;;10.56;43.93
29239;BME280;16267;48.194;11.546;2022-12-29T10:41:08;95723.44;;;10.73;44.21
29239;BME280;16267;48.194;11.546;2022-12-29T10:43:48;95718.69;;;10.80;43.80
29239;BME280;16267;48.194;11.546;2022-12-29T10:46:21;95720.09;;;10.88;43.91
29239;BME280;16267;48.194;11.546;2022-12-29T10:48:48;95710.41;;;10.94;43.89
29239;BME280;16267;48.194;11.546;2022-12-29T10:51:24;95712.31;;;10.98;43.68
29239;BME280;16267;48.194;11.546;2022-12-29T10:56:39;95699.78;;;11.11;42.08
29239;BME280;16267;48.194;11.546;2022-12-29T11:07:25;95696.81;;;11.29;41.66
29239;BME280;16267;48.194;11.546;2022-12-29T11:09:51;95688.69;;;11.32;41.07
29239;BME280;16267;48.194;11.546;2022-12-29T11:12:26;95694.13;;;11.49;41.95
29239;BME280;16267;48.194;11.546;2022-12-29T11:18:01;95678.84;;;11.66;41.74
29239;BME280;16267;48.194;11.546;2022-12-29T11:20:37;95679.13;;;11.71;40.70
29239;BME280;16267;48.194;11.546;2022-12-29T11:23:21;95682.78;;;11.81;40.38
29239;BME280;16267;48.194;11.546;2022-12-29T11:26:15;95672.69;;;12.05;39.67
29239;BME280;16267;48.194;11.546;2022-12-29T11:28:47;95665.00;;;12.23;40.02
29239;BME280;16267;48.194;11.546;2022-12-29T11:31:29;95665.84;;;12.20;38.70
29239;BME280;16267;48.194;11.546;2022-12-29T11:33:55;95666.63;;;12.54;37.97
29239;BME280;16267;48.194;11.546;2022-12-29T11:36:23;95659.66;;;12.89;38.78
29239;BME280;16267;48.194;11.546;2022-12-29T11:38:52;95654.56;;;12.91;38.42
29239;BME280;16267;48.194;11.546;2022-12-29T11:41:24;95658.69;;;12.95;38.42
29239;BME280;16267;48.194;11.546;2022-12-29T11:43:52;95656.75;;;13.12;38.26
29239;BME280;16267;48.194;11.546;2022-12-29T11:46:34;95656.50;;;13.07;38.50
29239;BME280;16267;48.194;11.546;2022-12-29T11:49:02;95651.13;;;12.90;38.60
29239;BME280;16267;48.194;11.546;2022-12-29T11:51:41;95652.09;;;12.67;37.19
29239;BME280;16267;48.194;11.546;2022-12-29T11:54:40;95656.22;;;12.72;38.67
29239;BME280;16267;48.194;11.546;2022-12-29T11:57:14;95655.38;;;12.75;37.88
29239;BME280;16267;48.194;11.546;2022-12-29T11:59:55;95652.34;;;12.73;39.09
29239;BME280;16267;48.194;11.546;2022-12-29T12:08:35;95653.84;;;12.74;37.94
29239;BME280;16267;48.194;11.546;2022-12-29T12:22:13;95640.09;;;12.85;37.96
29239;BME280;16267;48.194;11.546;2022-12-29T12:24:55;95638.69;;;12.80;36.93
29239;BME280;16267;48.194;11.546;2022-12-29T12:27:31;95622.84;;;12.82;37.18
29239;BME280;16267;48.194;11.546;2022-12-29T12:30:14;95630.09;;;12.85;38.39
29239;BME280;16267;48.194;11.546;2022-12-29T12:39:11;95620.91;;;12.83;39.58
29239;BME280;16267;48.194;11.546;2022-12-29T12:42:18;95618.91;;;12.87;39.98
29239;BME280;16267;48.194;11.546;2022-12-29T12:49:06;95611.47;;;12.91;40.28
29239;BME280;16267;48.194;11.546;2022-12-29T13:00:20;95615.03;;;12.88;41.11
29239;BME280;16267;48.194;11.546;2022-12-29T13:03:12;95607.63;;;12.92;40.97
29239;BME280;16267;48.194;11.546;2022-12-29T13:06:04;95614.84;;;12.95;40.93
29239;BME280;16267;48.194;11.546;2022-12-29T13:19:51;95614.59;;;13.06;41.52
29239;BME280;16267;48.194;11.546;2022-12-29T13:22:35;95610.78;;;13.03;41.23
29239;BME280;16267;48.194;11.546;2022-12-29T13:28:38;95608.75;;;13.07;41.43
29239;BME280;16267;48.194;11.546;2022-12-29T13:31:21;95605.31;;;13.07;41.87
29239;BME280;16267;48.194;11.546;2022-12-29T13:36:37;95615.97;;;13.10;42.85
29239;BME280;16267;48.194;11.546;2022-12-29T13:39:35;95608.69;;;13.11;42.96
29239;BME280;16267;48.194;11.546;2022-12-29T13:42:04;95614.47;;;13.09;42.66
29239;BME280;16267;48.194;11.546;2022-12-29T13:44:39;95617.44;;;12.99;42.05
29239;BME280;16267;48.194;11.546;2022-12-29T13:47:36;95616.34;;;12.96;42.76
29239;BME280;16267;48.194;11.546;2022-12-29T13:50:14;95614.09;;;12.94;42.84
29239;BME280;16267;48.194;11.546;2022-12-29T13:56:24;95621.41;;;12.94;43.94
29239;BME280;16267;48.194;11.546;2022-12-29T14:02:03;95621.00;;;12.95;44.70
29239;BME280;16267;48.194;11.546;2022-12-29T14:04:30;95623.69;;;12.95;44.92
29239;BME280;16267;48.194;11.546;2022-12-29T14:07:17;95616.13;;;12.90;45.17
29239;BME280;16267;48.194;11.546;2022-12-29T14:09:54;95620.75;;;12.90;45.95
29239;BME280;16267;48.194;11.546;2022-12-29T14:17:39;95615.47;;;12.86;46.68
29239;BME280;16267;48.194;11.546;2022-12-29T14:20:18;95614.72;;;12.86;47.01
29239;BME280;16267;48.194;11.546;2022-12-29T14:26:09;95612.19;;;12.79;47.13
29239;BME280;16267;48.194;11.546;2022-12-29T14:28:43;95618.41;;;12.76;47.37
29239;BME280;16267;48.194;11.546;2022-12-29T14:39:41;95617.25;;;12.60;48.06
29239;BME280;16267;48.194;11.546;2022-12-29T14:44:47;95627.94;;;12.64;47.74
29239;BME280;16267;48.194;11.546;2022-12-29T14:50:13;95630.88;;;12.53;47.68
29239;BME280;16267;48.194;11.546;2022-12-29T14:53:01;95633.91;;;12.55;48.13
29239;BME280;16267;48.194;11.546;2022-12-29T14:58:01;95632.03;;;12.52;48.10
29239;BME280;16267;48.194;11.546;2022-12-29T15:00:35;95633.56;;;12.53;48.33
29239;BME280;16267;48.194;11.546;2022-12-29T15:03:29;95642.41;;;12.54;48.19
29239;BME280;16267;48.194;11.546;2022-12-29T15:06:15;95635.53;;;12.53;48.84
29239;BME280;16267;48.194;11.546;2022-12-29T15:09:15;95644.00;;;12.51;48.43
29239;BME280;16267;48.194;11.546;2022-12-29T15:11:57;95640.97;;;12.49;48.98
29239;BME280;16267;48.194;11.546;2022-12-29T15:14:39;95638.78;;;12.44;48.51
29239;BME280;16267;48.194;11.546;2022-12-29T15:17:30;95644.16;;;12.44;49.27
29239;BME280;16267;48.194;11.546;2022-12-29T15:19:58;95643.41;;;12.43;49.31
29239;BME280;16267;48.194;11.546;2022-12-29T15:22:25;95643.84;;;12.42;48.88
29239;BME280;16267;48.194;11.546;2022-12-29T15:24:54;95635.41;;;12.40;49.45
29239;BME280;16267;48.194;11.546;2022-12-29T15:27:23;95645.44;;;12.39;49.41
29239;BME280;16267;48.194;11.546;2022-12-29T15:30:02;95641.72;;;12.33;48.93
29239;BME280;16267;48.194;11.546;2022-12-29T15:32:39;95647.19;;;12.30;49.75
29239;BME280;16267;48.194;11.546;2022-12-29T15:37:52;95645.75;;;12.25;50.43
29239;BME280;16267;48.194;11.546;2022-12-29T15:40:24;95641.97;;;12.22;51.08
29239;BME280;16267;48.194;11.546;2022-12-29T15:43:16;95645.06;;;12.21;50.79
29239;BME280;16267;48.194;11.546;2022-12-29T15:45:49;95643.97;;;12.18;51.02
29239;BME280;16267;48.194;11.546;2022-12-29T15:48:23;95646.00;;;12.14;50.81
29239;BME280;16267;48.194;11.546;2022-12-29T15:50:49;95642.22;;;12.12;50.67